Sheffield, Massachusetts
Current Conditions -  °F | °C
As of 7:54 AM on Saturday 20 Dec 2014 (Local Time) from KPSF Reporting Station
Overcast Overcast  
Wind Chill: 19°   Ceiling: 2700
Heat Index: 19°   Visibility: 10mi
Dew Point: 15°   Wind: 0mph
Humidity: 85%   Direction: NA
Pressure: 30.22"   Gusts: NA
Location:  42.11°N, 73.36°W
Report Text: KPSF 201254Z AUTO 00000KT 10SM OVC027 M07/M09 A3022 RMK AO2 SLP253 T10721094
Loading
Personal Weather Stations






























Interactive Weather Map New forecast layout! Learn more

10-Day Weather Forecast

Advertisements
Track Severe Weather on mobile